Time;durP1;ratioP1;P1;durP2;ratioP2;P2;SDS_P1;SDS_P2;PMS_P1;PMS_P2;Temp;Humidity;BMP_temperature;BMP_pressure;BME280_temperature;BME280_humidity;BME280_pressure;Samples;Min_cycle;Max_cycle;Signal;HPM_P1;HPM_P2
2022/08/09 00:01:00;;;;;;;;;;;25.90;52.40;;;;;;5043937;28;87439;-46
2022/08/09 00:03:25;;;;;;;;;;;25.90;52.50;;;;;;5042188;28;87086;-45
2022/08/09 00:05:51;;;;;;;;;;;25.90;52.50;;;;;;5042040;27;88237;-45
2022/08/09 00:08:16;;;;;;;;;;;25.90;52.50;;;;;;5042335;28;87272;-45
2022/08/09 00:10:42;;;;;;;;;;;25.80;52.40;;;;;;5041924;27;87161;-45
2022/08/09 00:13:08;;;;;;;;;;;25.80;52.40;;;;;;5043925;27;88830;-44
2022/08/09 00:15:33;;;;;;;;;;;25.90;52.50;;;;;;5043882;28;90358;-45
2022/08/09 00:17:59;;;;;;;;;;;25.80;52.40;;;;;;5045618;28;86908;-45
2022/08/09 00:20:24;;;;;;;;;;;25.80;52.40;;;;;;5045689;27;87051;-45
2022/08/09 00:22:50;;;;;;;;;;;25.80;52.40;;;;;;5048179;28;88116;-44
2022/08/09 00:25:15;;;;;;;;;;;25.80;52.40;;;;;;5045377;28;87481;-45
2022/08/09 00:27:41;;;;;;;;;;;25.80;52.40;;;;;;5045216;28;87970;-45
2022/08/09 00:30:07;;;;;;;;;;;25.70;52.40;;;;;;5045287;28;86996;-45
2022/08/09 00:32:32;;;;;;;;;;;25.70;52.40;;;;;;5045529;28;87411;-45
2022/08/09 00:34:58;;;;;;;;;;;25.70;52.40;;;;;;5044779;28;88400;-45
2022/08/09 00:37:24;;;;;;;;;;;25.70;52.40;;;;;;5045048;28;87132;-44
2022/08/09 00:39:50;;;;;;;;;;;25.70;52.40;;;;;;5044625;28;87921;-45
2022/08/09 00:42:15;;;;;;;;;;;25.70;52.40;;;;;;5044920;28;87372;-45
2022/08/09 00:44:41;;;;;;;;;;;25.70;52.40;;;;;;5048266;28;86990;-46
2022/08/09 00:47:07;;;;;;;;;;;25.70;52.40;;;;;;5044265;28;89443;-45
2022/08/09 00:49:33;;;;;;;;;;;25.70;52.40;;;;;;5045031;28;87133;-45
2022/08/09 00:51:59;;;;;;;;;;;25.70;52.30;;;;;;5044824;27;88764;-44
2022/08/09 00:54:24;;;;;;;;;;;25.70;52.40;;;;;;5044092;28;89535;-45
2022/08/09 00:56:50;;;;;;;;;;;25.60;52.30;;;;;;5045426;28;86763;-45
2022/08/09 00:59:15;;;;;;;;;;;25.60;52.40;;;;;;5044976;28;87001;-45
2022/08/09 01:01:41;;;;;;;;;;;25.60;52.30;;;;;;5044023;28;87404;-45
2022/08/09 01:04:29;;;;;;;;;;;25.60;52.30;;;;;;5047057;28;88045;-46
2022/08/09 01:07:08;;;;;;;;;;;25.60;52.20;;;;;;5044182;27;88250;-45
2022/08/09 01:09:42;;;;;;;;;;;25.50;52.20;;;;;;5044492;28;87643;-44
2022/08/09 01:12:14;;;;;;;;;;;25.50;52.20;;;;;;5044583;28;87430;-46
2022/08/09 01:14:42;;;;;;;;;;;25.50;52.30;;;;;;5044132;28;88246;-44
2022/08/09 01:17:10;;;;;;;;;;;25.50;52.20;;;;;;5044406;28;87257;-44
2022/08/09 01:19:41;;;;;;;;;;;25.50;52.20;;;;;;5044401;28;87367;-47
2022/08/09 01:22:45;;;;;;;;;;;25.50;52.20;;;;;;5044545;28;87560;-45
2022/08/09 01:25:13;;;;;;;;;;;25.50;52.30;;;;;;5001310;28;89485;-45
2022/08/09 01:27:39;;;;;;;;;;;25.50;52.20;;;;;;5004318;28;87362;-45
2022/08/09 01:30:06;;;;;;;;;;;25.50;52.30;;;;;;5021272;28;88081;-46
2022/08/09 01:32:39;;;;;;;;;;;25.40;52.20;;;;;;5044015;27;89040;-45
2022/08/09 01:35:11;;;;;;;;;;;25.40;52.20;;;;;;5043643;28;88135;-44
2022/08/09 01:37:38;;;;;;;;;;;25.40;52.20;;;;;;5044057;28;87089;-44
2022/08/09 01:40:05;;;;;;;;;;;25.40;52.20;;;;;;5044161;27;87434;-45
2022/08/09 01:42:31;;;;;;;;;;;25.40;52.30;;;;;;5043633;28;89428;-45
2022/08/09 01:44:58;;;;;;;;;;;25.40;52.30;;;;;;5044070;28;87255;-45
2022/08/09 01:47:24;;;;;;;;;;;25.30;52.30;;;;;;5044511;28;86740;-44
2022/08/09 01:49:50;;;;;;;;;;;25.30;52.20;;;;;;5046345;28;88122;-45
2022/08/09 01:52:17;;;;;;;;;;;25.30;52.20;;;;;;5044037;28;87292;-45
2022/08/09 01:54:48;;;;;;;;;;;25.30;52.20;;;;;;5042816;28;89053;-45
2022/08/09 01:57:16;;;;;;;;;;;25.30;52.30;;;;;;5043930;28;87424;-45
2022/08/09 01:59:44;;;;;;;;;;;25.30;52.20;;;;;;5043732;27;87420;-45
2022/08/09 02:02:12;;;;;;;;;;;25.30;52.20;;;;;;5042981;28;87830;-45
2022/08/09 02:04:38;;;;;;;;;;;25.30;52.30;;;;;;5043862;28;87008;-44
2022/08/09 02:07:07;;;;;;;;;;;25.30;52.30;;;;;;5043596;27;88023;-45
2022/08/09 02:09:34;;;;;;;;;;;25.30;52.20;;;;;;5043225;28;87917;-44
2022/08/09 02:12:01;;;;;;;;;;;25.20;52.20;;;;;;5046935;28;86324;-45
2022/08/09 02:14:27;;;;;;;;;;;25.20;52.30;;;;;;5042962;28;89414;-45
2022/08/09 02:16:54;;;;;;;;;;;25.20;52.20;;;;;;5043200;28;87060;-45
2022/08/09 02:19:20;;;;;;;;;;;25.20;52.30;;;;;;5042921;27;88362;-45
2022/08/09 02:21:46;;;;;;;;;;;25.20;52.30;;;;;;5043215;28;88081;-45
2022/08/09 02:24:15;;;;;;;;;;;25.20;52.30;;;;;;5043530;28;87072;-45
2022/08/09 02:26:41;;;;;;;;;;;25.20;52.30;;;;;;5043413;28;87572;-45
2022/08/09 02:29:27;;;;;;;;;;;25.20;52.30;;;;;;5042913;28;88343;-45
2022/08/09 02:32:02;;;;;;;;;;;25.10;52.30;;;;;;5043663;28;86825;-44
2022/08/09 02:34:30;;;;;;;;;;;25.10;52.20;;;;;;5043392;28;90882;-45
2022/08/09 02:36:57;;;;;;;;;;;25.10;52.30;;;;;;5043752;28;86896;-44
2022/08/09 02:39:28;;;;;;;;;;;25.10;52.30;;;;;;5043110;27;88307;-45
2022/08/09 02:41:56;;;;;;;;;;;25.10;52.30;;;;;;5042625;28;87966;-44
2022/08/09 02:44:24;;;;;;;;;;;25.10;52.30;;;;;;5042591;28;88173;-45
2022/08/09 02:46:50;;;;;;;;;;;25.00;52.30;;;;;;5043224;27;87514;-45
2022/08/09 02:49:18;;;;;;;;;;;25.00;52.30;;;;;;5042628;28;88636;-45
2022/08/09 02:51:45;;;;;;;;;;;25.00;52.30;;;;;;5042967;28;87034;-46
2022/08/09 02:54:12;;;;;;;;;;;25.00;52.30;;;;;;5043078;27;87450;-45
2022/08/09 02:56:40;;;;;;;;;;;25.00;52.30;;;;;;5045381;28;88131;-45
2022/08/09 02:59:06;;;;;;;;;;;25.00;52.40;;;;;;5042836;27;88726;-45
2022/08/09 03:01:33;;;;;;;;;;;25.00;52.40;;;;;;5042890;28;87252;-45
2022/08/09 03:04:00;;;;;;;;;;;24.90;52.40;;;;;;5042769;28;86998;-44
2022/08/09 03:06:26;;;;;;;;;;;25.00;52.40;;;;;;5042837;27;86995;-44
2022/08/09 03:08:52;;;;;;;;;;;25.00;52.40;;;;;;5041817;28;88961;-45
2022/08/09 03:11:19;;;;;;;;;;;24.90;52.40;;;;;;5042570;28;86829;-44
2022/08/09 03:13:45;;;;;;;;;;;24.90;52.50;;;;;;5042388;27;88598;-45
2022/08/09 03:16:12;;;;;;;;;;;24.90;52.40;;;;;;5045215;28;88429;-45
2022/08/09 03:18:38;;;;;;;;;;;24.90;52.50;;;;;;5042657;27;87426;-45
2022/08/09 03:21:04;;;;;;;;;;;24.80;52.50;;;;;;5042483;28;88271;-45
2022/08/09 03:23:30;;;;;;;;;;;24.80;52.50;;;;;;5042438;28;87044;-44
2022/08/09 03:25:57;;;;;;;;;;;24.80;52.60;;;;;;5042920;28;87459;-45
2022/08/09 03:28:24;;;;;;;;;;;24.80;52.50;;;;;;5042221;28;88458;-45
2022/08/09 03:30:49;;;;;;;;;;;24.80;52.50;;;;;;5042530;28;87006;-45
2022/08/09 03:33:15;;;;;;;;;;;24.80;52.50;;;;;;5041867;27;87972;-45
2022/08/09 03:35:41;;;;;;;;;;;24.80;52.50;;;;;;5042346;28;87357;-44
2022/08/09 03:38:06;;;;;;;;;;;24.80;52.60;;;;;;5045413;28;87091;-44
2022/08/09 03:40:32;;;;;;;;;;;24.80;52.60;;;;;;5042047;28;88013;-44
2022/08/09 03:42:58;;;;;;;;;;;24.80;52.60;;;;;;5042126;28;87195;-44
2022/08/09 03:45:23;;;;;;;;;;;24.80;52.60;;;;;;5042419;28;87849;-45
2022/08/09 03:47:49;;;;;;;;;;;24.80;52.70;;;;;;5045453;28;88134;-45
2022/08/09 03:50:14;;;;;;;;;;;24.70;52.60;;;;;;5046386;28;86342;-44
2022/08/09 03:52:41;;;;;;;;;;;24.70;52.60;;;;;;5045897;28;87057;-44
2022/08/09 03:55:08;;;;;;;;;;;24.70;52.70;;;;;;5044810;28;89625;-44
2022/08/09 03:57:34;;;;;;;;;;;24.70;52.70;;;;;;5045153;28;88066;-45
2022/08/09 03:59:59;;;;;;;;;;;24.70;52.70;;;;;;5047787;27;88430;-44
2022/08/09 04:02:26;;;;;;;;;;;24.70;52.70;;;;;;5046059;28;87141;-44
2022/08/09 04:04:52;;;;;;;;;;;24.60;52.70;;;;;;5045722;27;86995;-46
2022/08/09 04:07:17;;;;;;;;;;;24.60;53.40;;;;;;5045376;28;87489;-44
2022/08/09 04:09:43;;;;;;;;;;;24.60;52.80;;;;;;5045476;28;87202;-45
2022/08/09 04:12:08;;;;;;;;;;;24.60;52.80;;;;;;5045471;28;87349;-44
2022/08/09 04:14:34;;;;;;;;;;;24.60;52.80;;;;;;5045881;28;87431;-44
2022/08/09 04:16:59;;;;;;;;;;;24.60;52.80;;;;;;5045556;28;87750;-44
2022/08/09 04:19:25;;;;;;;;;;;24.60;52.80;;;;;;5045721;27;86934;-45
2022/08/09 04:21:51;;;;;;;;;;;24.60;52.90;;;;;;5047536;28;88901;-44
2022/08/09 04:24:16;;;;;;;;;;;24.60;52.90;;;;;;5045348;27;88267;-44
2022/08/09 04:26:42;;;;;;;;;;;24.60;52.90;;;;;;5045017;28;88156;-44
2022/08/09 04:29:07;;;;;;;;;;;24.60;52.90;;;;;;5045374;28;86950;-45
2022/08/09 04:31:33;;;;;;;;;;;24.60;53.00;;;;;;5045175;27;88980;-45
2022/08/09 04:33:58;;;;;;;;;;;24.50;52.90;;;;;;5044853;28;87475;-45
2022/08/09 04:36:25;;;;;;;;;;;24.50;53.00;;;;;;5045343;28;87136;-45
2022/08/09 04:38:51;;;;;;;;;;;24.50;53.00;;;;;;5045627;27;86785;-46
2022/08/09 04:41:17;;;;;;;;;;;24.50;53.00;;;;;;5044667;28;87195;-45
2022/08/09 04:43:42;;;;;;;;;;;24.50;53.00;;;;;;5048102;28;87127;-45
2022/08/09 04:46:10;;;;;;;;;;;24.50;53.00;;;;;;5044141;28;89030;-45
2022/08/09 04:48:35;;;;;;;;;;;24.50;53.00;;;;;;5044808;28;87116;-46
2022/08/09 04:51:01;;;;;;;;;;;24.50;53.10;;;;;;5044879;27;88360;-44
2022/08/09 04:53:26;;;;;;;;;;;24.50;53.00;;;;;;5044534;28;88027;-45
2022/08/09 04:55:52;;;;;;;;;;;24.50;53.10;;;;;;5044881;28;87127;-45
2022/08/09 04:58:17;;;;;;;;;;;24.50;53.20;;;;;;5043998;27;87433;-45
2022/08/09 05:00:43;;;;;;;;;;;24.40;53.10;;;;;;5043865;28;89646;-45
2022/08/09 05:03:09;;;;;;;;;;;24.40;53.10;;;;;;5045300;28;86341;-44
2022/08/09 05:05:34;;;;;;;;;;;24.50;53.20;;;;;;5047222;27;87293;-46
2022/08/09 05:08:00;;;;;;;;;;;24.40;53.20;;;;;;5044960;28;87218;-44
2022/08/09 05:10:25;;;;;;;;;;;24.40;53.10;;;;;;5043484;27;88519;-44
2022/08/09 05:12:51;;;;;;;;;;;24.40;53.20;;;;;;5044033;28;89557;-45
2022/08/09 05:15:17;;;;;;;;;;;24.40;53.20;;;;;;5044490;28;87126;-45
2022/08/09 05:17:42;;;;;;;;;;;24.40;53.30;;;;;;5044995;28;87469;-47
2022/08/09 05:20:08;;;;;;;;;;;24.40;53.20;;;;;;5044079;28;88244;-45
2022/08/09 05:22:34;;;;;;;;;;;24.40;53.20;;;;;;5044265;28;87100;-45
2022/08/09 05:25:00;;;;;;;;;;;24.40;53.20;;;;;;5046962;28;87453;-44
2022/08/09 05:27:25;;;;;;;;;;;24.40;53.30;;;;;;5044761;28;86176;-45
2022/08/09 05:29:51;;;;;;;;;;;24.40;53.30;;;;;;5044397;27;87400;-45
2022/08/09 05:32:16;;;;;;;;;;;24.40;53.30;;;;;;5044009;28;88020;-45
2022/08/09 05:34:42;;;;;;;;;;;24.40;53.40;;;;;;5043508;28;88082;-45
2022/08/09 05:37:07;;;;;;;;;;;24.40;53.40;;;;;;5044323;28;88516;-45
2022/08/09 05:39:34;;;;;;;;;;;24.40;53.40;;;;;;5043762;28;87942;-45
2022/08/09 05:41:59;;;;;;;;;;;24.40;53.40;;;;;;5044414;28;87053;-45
2022/08/09 05:44:26;;;;;;;;;;;24.40;53.50;;;;;;5044030;28;87492;-44
2022/08/09 05:46:52;;;;;;;;;;;24.40;53.50;;;;;;5046642;28;88044;-45
2022/08/09 05:49:17;;;;;;;;;;;24.40;53.50;;;;;;5044099;28;87592;-44
2022/08/09 05:51:43;;;;;;;;;;;24.30;53.50;;;;;;5044217;28;87243;-45
2022/08/09 05:54:08;;;;;;;;;;;24.40;53.50;;;;;;5044041;28;87157;-46
2022/08/09 05:56:34;;;;;;;;;;;24.30;53.50;;;;;;5043704;27;88744;-44
2022/08/09 05:59:00;;;;;;;;;;;24.40;53.60;;;;;;5042852;28;88921;-45
2022/08/09 06:01:27;;;;;;;;;;;24.40;53.60;;;;;;5043111;28;88566;-45
2022/08/09 06:03:52;;;;;;;;;;;24.40;53.60;;;;;;5043769;27;87450;-45
2022/08/09 06:06:18;;;;;;;;;;;24.40;53.70;;;;;;5043121;28;89267;-45
2022/08/09 06:08:43;;;;;;;;;;;24.40;53.70;;;;;;5046727;27;86994;-45
2022/08/09 06:11:09;;;;;;;;;;;24.40;53.70;;;;;;5043004;28;87340;-46
2022/08/09 06:13:34;;;;;;;;;;;24.40;53.70;;;;;;5043458;28;87120;-46
2022/08/09 06:16:03;;;;;;;;;;;24.40;53.80;;;;;;5043823;27;89006;-45
2022/08/09 06:18:29;;;;;;;;;;;24.30;53.80;;;;;;5043128;28;88110;-44
2022/08/09 06:20:55;;;;;;;;;;;24.40;53.80;;;;;;5043401;28;87116;-45
2022/08/09 06:23:21;;;;;;;;;;;24.40;53.80;;;;;;5042587;27;88247;-46
2022/08/09 06:25:47;;;;;;;;;;;24.30;53.70;;;;;;5042891;28;87899;-45
2022/08/09 06:28:12;;;;;;;;;;;24.40;53.80;;;;;;5043306;28;87095;-45
2022/08/09 06:30:38;;;;;;;;;;;24.40;53.80;;;;;;5046232;28;87422;-45
2022/08/09 06:33:03;;;;;;;;;;;24.40;53.90;;;;;;5043088;28;87109;-45
2022/08/09 06:35:29;;;;;;;;;;;24.40;53.90;;;;;;5043274;28;87420;-44
2022/08/09 06:37:54;;;;;;;;;;;24.40;53.90;;;;;;5042860;28;87449;-45
2022/08/09 06:40:20;;;;;;;;;;;24.40;53.90;;;;;;5043680;28;86216;-45
2022/08/09 06:42:45;;;;;;;;;;;24.40;53.90;;;;;;5043376;27;87102;-45
2022/08/09 06:45:11;;;;;;;;;;;24.40;53.90;;;;;;5043004;28;88267;-44
2022/08/09 06:47:37;;;;;;;;;;;24.40;53.90;;;;;;5042651;28;88067;-45
2022/08/09 06:50:03;;;;;;;;;;;24.40;53.90;;;;;;5043066;27;87473;-44
2022/08/09 06:52:28;;;;;;;;;;;24.40;54.00;;;;;;5045806;28;89406;-45
2022/08/09 06:54:54;;;;;;;;;;;24.40;54.00;;;;;;5042814;28;87441;-44
2022/08/09 06:57:19;;;;;;;;;;;24.40;54.60;;;;;;5042696;28;88034;-45
2022/08/09 06:59:45;;;;;;;;;;;24.40;54.00;;;;;;5042959;28;87099;-46
2022/08/09 07:02:10;;;;;;;;;;;24.40;54.00;;;;;;5042537;28;88787;-45
2022/08/09 07:04:36;;;;;;;;;;;24.40;54.00;;;;;;5043062;28;87517;-45
2022/08/09 07:07:03;;;;;;;;;;;24.40;53.90;;;;;;5043219;28;87529;-45
2022/08/09 07:09:28;;;;;;;;;;;24.50;54.00;;;;;;5042780;27;87328;-45
2022/08/09 07:11:54;;;;;;;;;;;24.50;54.00;;;;;;5041306;28;88003;-45
2022/08/09 07:14:20;;;;;;;;;;;24.50;54.00;;;;;;5045917;28;87441;-45
2022/08/09 07:16:46;;;;;;;;;;;24.50;54.00;;;;;;5042071;28;89322;-45
2022/08/09 07:19:12;;;;;;;;;;;24.50;54.00;;;;;;5042857;28;87200;-45
2022/08/09 07:21:38;;;;;;;;;;;24.50;54.00;;;;;;5042005;27;88376;-44
2022/08/09 07:24:04;;;;;;;;;;;24.50;53.90;;;;;;5042014;28;89424;-45
2022/08/09 07:26:29;;;;;;;;;;;24.50;53.80;;;;;;5042443;28;87109;-45
2022/08/09 07:28:55;;;;;;;;;;;24.50;53.60;;;;;;5043190;27;87447;-45
2022/08/09 07:31:20;;;;;;;;;;;24.50;53.60;;;;;;5042141;28;87684;-45
2022/08/09 07:33:46;;;;;;;;;;;24.50;54.10;;;;;;5045383;28;87147;-45
2022/08/09 07:36:13;;;;;;;;;;;24.50;53.60;;;;;;5041650;28;88951;-46
2022/08/09 07:38:39;;;;;;;;;;;24.50;53.40;;;;;;5042619;28;87503;-45
2022/08/09 07:41:04;;;;;;;;;;;24.50;53.40;;;;;;5042447;27;87640;-45
2022/08/09 07:43:30;;;;;;;;;;;24.50;53.40;;;;;;5042001;28;87103;-45
2022/08/09 07:45:55;;;;;;;;;;;24.50;53.20;;;;;;5042448;28;87388;-45
2022/08/09 07:48:21;;;;;;;;;;;24.50;53.30;;;;;;5042157;27;88411;-45
2022/08/09 07:50:46;;;;;;;;;;;24.50;53.10;;;;;;5042070;28;88034;-45
2022/08/09 07:53:12;;;;;;;;;;;24.50;53.30;;;;;;5043000;28;86583;-45
2022/08/09 07:55:37;;;;;;;;;;;24.50;53.30;;;;;;5044689;28;87167;-44
2022/08/09 07:58:03;;;;;;;;;;;24.50;53.20;;;;;;5042205;28;87233;-46
2022/08/09 08:00:29;;;;;;;;;;;24.50;53.10;;;;;;5041011;28;88828;-45
2022/08/09 08:02:59;;;;;;;;;;;24.50;53.20;;;;;;5042086;28;88088;-45
2022/08/09 08:05:24;;;;;;;;;;;24.60;53.20;;;;;;5041771;28;87142;-45
2022/08/09 08:07:50;;;;;;;;;;;24.60;53.20;;;;;;5042129;28;87400;-44
2022/08/09 08:10:16;;;;;;;;;;;24.60;53.20;;;;;;5041761;28;88299;-45
2022/08/09 08:12:42;;;;;;;;;;;24.60;53.20;;;;;;5041955;28;87187;-45
2022/08/09 08:15:09;;;;;;;;;;;24.60;53.20;;;;;;5041928;28;87450;-45
2022/08/09 08:17:35;;;;;;;;;;;24.60;53.20;;;;;;5044717;28;88950;-45
2022/08/09 08:20:00;;;;;;;;;;;24.60;53.00;;;;;;5041947;27;86943;-45
2022/08/09 08:22:26;;;;;;;;;;;24.60;53.70;;;;;;5041731;28;87738;-45
2022/08/09 08:24:54;;;;;;;;;;;24.60;53.10;;;;;;5041034;28;88203;-45
2022/08/09 08:27:21;;;;;;;;;;;24.60;52.90;;;;;;5041737;27;89082;-45
2022/08/09 08:29:47;;;;;;;;;;;24.60;53.00;;;;;;5041167;28;88933;-45
2022/08/09 08:32:12;;;;;;;;;;;24.60;52.80;;;;;;5041865;27;87090;-47
2022/08/09 08:34:38;;;;;;;;;;;24.60;52.50;;;;;;5044479;27;88130;-45
2022/08/09 08:37:04;;;;;;;;;;;24.60;52.50;;;;;;5044867;28;88162;-44
2022/08/09 08:39:29;;;;;;;;;;;24.70;52.60;;;;;;5047642;28;87000;-45
2022/08/09 08:41:55;;;;;;;;;;;24.70;52.20;;;;;;5045036;28;88955;-45
2022/08/09 08:44:21;;;;;;;;;;;24.70;52.20;;;;;;5044784;28;87984;-45
2022/08/09 08:46:47;;;;;;;;;;;24.70;52.50;;;;;;5044987;27;86976;-45
2022/08/09 08:49:13;;;;;;;;;;;24.70;52.50;;;;;;5044169;28;89028;-45
2022/08/09 08:51:38;;;;;;;;;;;24.70;52.50;;;;;;5045045;28;87190;-46
2022/08/09 08:54:07;;;;;;;;;;;24.70;52.30;;;;;;5044646;27;87360;-45
2022/08/09 08:56:33;;;;;;;;;;;24.80;51.70;;;;;;5044417;28;88281;-46
2022/08/09 08:59:00;;;;;;;;;;;24.70;51.90;;;;;;5044651;28;87206;-45
2022/08/09 09:01:26;;;;;;;;;;;24.70;51.90;;;;;;5046906;27;87439;-45
2022/08/09 09:03:51;;;;;;;;;;;24.80;51.70;;;;;;5044795;28;87434;-46
2022/08/09 09:06:18;;;;;;;;;;;24.80;51.60;;;;;;5045387;28;87406;-45
2022/08/09 09:08:45;;;;;;;;;;;24.80;52.10;;;;;;5044432;28;88014;-45
2022/08/09 09:11:11;;;;;;;;;;;24.80;52.10;;;;;;5044505;28;87087;-45
2022/08/09 09:13:38;;;;;;;;;;;24.80;51.90;;;;;;5043797;27;88569;-45
2022/08/09 09:16:04;;;;;;;;;;;24.80;51.70;;;;;;5044020;28;88440;-45
2022/08/09 09:18:29;;;;;;;;;;;24.80;51.90;;;;;;5044366;28;86993;-45
2022/08/09 09:20:57;;;;;;;;;;;24.80;51.90;;;;;;5047048;28;88136;-45
2022/08/09 09:23:39;;;;;;;;;;;24.80;51.70;;;;;;5044229;28;87016;-46
2022/08/09 09:26:05;;;;;;;;;;;24.80;51.80;;;;;;5044449;27;87310;-46
2022/08/09 09:28:31;;;;;;;;;;;24.90;51.70;;;;;;5044120;28;87973;-45
2022/08/09 09:30:58;;;;;;;;;;;24.90;51.40;;;;;;5044852;28;86445;-45
2022/08/09 09:33:32;;;;;;;;;;;24.90;51.70;;;;;;5044398;27;86902;-45
2022/08/09 09:35:59;;;;;;;;;;;24.90;51.70;;;;;;5043756;28;89327;-46
2022/08/09 09:38:43;;;;;;;;;;;24.90;51.10;;;;;;5043466;28;87972;-45
2022/08/09 09:41:09;;;;;;;;;;;24.90;51.40;;;;;;5044219;28;88345;-44
2022/08/09 09:43:34;;;;;;;;;;;24.90;51.20;;;;;;5046308;27;87861;-46
2022/08/09 09:46:03;;;;;;;;;;;25.00;50.80;;;;;;5044090;28;87734;-47
2022/08/09 09:48:28;;;;;;;;;;;24.90;50.80;;;;;;5043414;28;89590;-47
2022/08/09 09:50:54;;;;;;;;;;;24.90;51.00;;;;;;5044100;28;87183;-45
2022/08/09 09:53:21;;;;;;;;;;;25.00;51.20;;;;;;5044139;27;87301;-45
2022/08/09 09:55:54;;;;;;;;;;;25.00;51.10;;;;;;5044155;28;87237;-45
2022/08/09 09:58:20;;;;;;;;;;;25.00;51.10;;;;;;5044185;28;87069;-46
2022/08/09 10:00:46;;;;;;;;;;;25.00;51.10;;;;;;5043270;27;88688;-47
2022/08/09 10:03:12;;;;;;;;;;;25.00;51.10;;;;;;5042659;28;89021;-46
2022/08/09 10:05:56;;;;;;;;;;;25.10;51.00;;;;;;5046855;28;87152;-45
2022/08/09 10:08:22;;;;;;;;;;;25.00;51.00;;;;;;5043509;28;88051;-46
2022/08/09 10:10:48;;;;;;;;;;;25.00;51.00;;;;;;5043849;28;87118;-44
2022/08/09 10:13:14;;;;;;;;;;;25.00;50.90;;;;;;5043527;27;87289;-46
2022/08/09 10:15:47;;;;;;;;;;;25.10;51.00;;;;;;5043003;28;88030;-46
2022/08/09 10:18:12;;;;;;;;;;;25.10;50.90;;;;;;5043430;28;87119;-46
2022/08/09 10:20:38;;;;;;;;;;;25.20;51.00;;;;;;5044193;28;87542;-46
2022/08/09 10:23:15;;;;;;;;;;;25.10;50.80;;;;;;5043028;28;90010;-45
2022/08/09 10:25:40;;;;;;;;;;;25.20;50.90;;;;;;5043451;28;87110;-46
2022/08/09 10:28:06;;;;;;;;;;;25.20;50.80;;;;;;5045311;27;87972;-45
2022/08/09 10:30:32;;;;;;;;;;;25.20;50.80;;;;;;5043045;28;87062;-45
2022/08/09 10:32:58;;;;;;;;;;;25.20;50.80;;;;;;5043367;28;86977;-45
2022/08/09 10:35:24;;;;;;;;;;;25.20;50.80;;;;;;5042709;28;89575;-45
2022/08/09 10:37:50;;;;;;;;;;;25.20;50.50;;;;;;5043420;28;87015;-45
2022/08/09 10:40:16;;;;;;;;;;;25.20;50.60;;;;;;5043343;28;87539;-45
2022/08/09 10:42:41;;;;;;;;;;;25.30;50.80;;;;;;5042951;28;87177;-45
2022/08/09 10:45:11;;;;;;;;;;;25.30;50.40;;;;;;5043506;28;86416;-45
2022/08/09 10:47:37;;;;;;;;;;;25.30;50.50;;;;;;5043147;27;87323;-45
2022/08/09 10:50:13;;;;;;;;;;;25.30;50.50;;;;;;5045548;28;89429;-46
2022/08/09 10:52:59;;;;;;;;;;;25.40;50.50;;;;;;5042646;28;87977;-46
2022/08/09 10:55:25;;;;;;;;;;;25.30;50.40;;;;;;5041260;28;88396;-46
2022/08/09 10:57:51;;;;;;;;;;;25.40;50.40;;;;;;5043000;28;87132;-45
2022/08/09 11:00:35;;;;;;;;;;;25.40;50.10;;;;;;5042733;27;87186;-45
2022/08/09 11:03:01;;;;;;;;;;;25.40;50.10;;;;;;5042353;28;89486;-45
2022/08/09 11:05:26;;;;;;;;;;;25.40;49.80;;;;;;5043015;28;87127;-45
2022/08/09 11:07:52;;;;;;;;;;;25.40;49.90;;;;;;5043024;28;87513;-45
2022/08/09 11:10:36;;;;;;;;;;;25.40;49.90;;;;;;5042948;28;87215;-45
2022/08/09 11:13:22;;;;;;;;;;;25.50;49.80;;;;;;5045547;27;87097;-45
2022/08/09 11:15:47;;;;;;;;;;;25.50;49.50;;;;;;5041829;28;88088;-46
2022/08/09 11:18:33;;;;;;;;;;;25.50;49.50;;;;;;5042114;28;87982;-45
2022/08/09 11:20:59;;;;;;;;;;;25.50;49.20;;;;;;5034208;27;91056;-46
2022/08/09 11:23:25;;;;;;;;;;;25.50;49.20;;;;;;5042254;28;88883;-45
2022/08/09 11:25:50;;;;;;;;;;;25.60;49.20;;;;;;5042620;28;86915;-45
2022/08/09 11:28:30;;;;;;;;;;;25.60;49.40;;;;;;5042713;28;86873;-45
2022/08/09 11:30:56;;;;;;;;;;;25.70;49.20;;;;;;5041873;28;89837;-46
2022/08/09 11:33:41;;;;;;;;;;;25.60;49.10;;;;;;5045570;28;87065;-46
2022/08/09 11:36:07;;;;;;;;;;;25.60;49.10;;;;;;5042665;28;87606;-45
2022/08/09 11:38:34;;;;;;;;;;;25.60;48.80;;;;;;5042621;28;86990;-45
2022/08/09 11:41:12;;;;;;;;;;;25.60;48.80;;;;;;5042527;28;87368;-48
2022/08/09 11:43:39;;;;;;;;;;;25.70;48.80;;;;;;5041073;28;90263;-46
2022/08/09 11:46:05;;;;;;;;;;;25.70;48.60;;;;;;5042338;28;87300;-46
2022/08/09 11:48:32;;;;;;;;;;;25.70;48.50;;;;;;5042377;28;87453;-46
2022/08/09 11:50:57;;;;;;;;;;;25.70;48.60;;;;;;5041815;28;88535;-46
2022/08/09 11:53:23;;;;;;;;;;;25.70;48.70;;;;;;5042154;28;87078;-45
2022/08/09 11:55:49;;;;;;;;;;;25.70;48.30;;;;;;5044815;28;87231;-45
2022/08/09 11:58:15;;;;;;;;;;;25.80;48.10;;;;;;5042105;28;87165;-46
2022/08/09 12:00:48;;;;;;;;;;;25.80;48.10;;;;;;5042004;28;87427;-46
2022/08/09 12:03:14;;;;;;;;;;;25.80;48.30;;;;;;5041999;28;87686;-45
2022/08/09 12:05:40;;;;;;;;;;;25.80;48.20;;;;;;5042200;28;86990;-46
2022/08/09 12:08:08;;;;;;;;;;;25.80;48.20;;;;;;5043842;27;87990;-45
2022/08/09 12:10:34;;;;;;;;;;;25.80;48.10;;;;;;5044812;28;89359;-45
2022/08/09 12:12:59;;;;;;;;;;;25.80;48.30;;;;;;5045491;28;87372;-45
2022/08/09 12:15:26;;;;;;;;;;;25.90;48.40;;;;;;5045421;28;87256;-44
2022/08/09 12:17:52;;;;;;;;;;;25.90;48.10;;;;;;5048200;28;88137;-46
2022/08/09 12:20:19;;;;;;;;;;;25.90;48.30;;;;;;5045449;27;86946;-44
2022/08/09 12:22:45;;;;;;;;;;;25.90;48.00;;;;;;5045051;28;87981;-45
2022/08/09 12:25:15;;;;;;;;;;;25.90;47.80;;;;;;5045779;28;86216;-45
2022/08/09 12:27:41;;;;;;;;;;;26.00;47.80;;;;;;5045537;27;86952;-46
2022/08/09 12:30:07;;;;;;;;;;;26.00;47.50;;;;;;5045007;28;88010;-45
2022/08/09 12:32:32;;;;;;;;;;;26.00;47.70;;;;;;5044676;28;88870;-45
2022/08/09 12:35:02;;;;;;;;;;;26.00;47.60;;;;;;5045182;27;88773;-46
2022/08/09 12:37:35;;;;;;;;;;;26.00;47.80;;;;;;5044920;28;87942;-46
2022/08/09 12:40:06;;;;;;;;;;;26.00;47.80;;;;;;5047982;28;87124;-46
2022/08/09 12:42:31;;;;;;;;;;;26.10;47.40;;;;;;5044663;28;88193;-45
2022/08/09 12:44:57;;;;;;;;;;;26.10;47.60;;;;;;5045330;28;86987;-45
2022/08/09 12:47:23;;;;;;;;;;;26.10;47.70;;;;;;5045267;27;87253;-45
2022/08/09 12:52:41;;;;;;;;;;;26.20;47.80;;;;;;5044864;28;86981;-46
2022/08/09 12:55:08;;;;;;;;;;;26.20;47.50;;;;;;5044851;27;88725;-45
2022/08/09 12:57:45;;;;;;;;;;;26.30;47.50;;;;;;5043686;28;90536;-45
2022/08/09 13:00:16;;;;;;;;;;;26.30;47.50;;;;;;5043956;28;87178;-45
2022/08/09 13:02:48;;;;;;;;;;;26.30;47.20;;;;;;5047222;27;88674;-45
2022/08/09 13:05:13;;;;;;;;;;;26.30;47.20;;;;;;5044792;28;87106;-46
2022/08/09 13:07:39;;;;;;;;;;;26.30;47.50;;;;;;5044689;27;88004;-45
2022/08/09 13:10:05;;;;;;;;;;;26.40;47.60;;;;;;5044520;28;88135;-46
2022/08/09 13:12:30;;;;;;;;;;;26.40;47.30;;;;;;5044561;28;87113;-46
2022/08/09 13:15:05;;;;;;;;;;;26.40;47.30;;;;;;5045041;27;89028;-45
2022/08/09 13:17:30;;;;;;;;;;;26.40;47.30;;;;;;5044040;28;89540;-47
2022/08/09 13:19:56;;;;;;;;;;;26.50;47.20;;;;;;5044100;28;87179;-47
2022/08/09 13:22:23;;;;;;;;;;;26.50;47.10;;;;;;5044085;27;87964;-47
2022/08/09 13:24:57;;;;;;;;;;;26.50;46.90;;;;;;5047058;28;88072;-45
2022/08/09 13:27:25;;;;;;;;;;;26.50;46.80;;;;;;5044210;27;86980;-46
2022/08/09 13:30:11;;;;;;;;;;;26.50;46.90;;;;;;5044134;28;87943;-45
2022/08/09 13:32:47;;;;;;;;;;;26.60;47.00;;;;;;5036131;27;89444;-46
2022/08/09 13:35:14;;;;;;;;;;;26.60;47.00;;;;;;5044394;27;86846;-45
2022/08/09 13:37:40;;;;;;;;;;;26.70;46.90;;;;;;5043894;28;87159;-45
2022/08/09 13:40:07;;;;;;;;;;;26.70;46.80;;;;;;5044433;28;86230;-46
2022/08/09 13:42:32;;;;;;;;;;;26.70;46.70;;;;;;5044454;28;87181;-44
2022/08/09 13:44:58;;;;;;;;;;;26.70;46.70;;;;;;5046573;28;87881;-44
2022/08/09 13:47:23;;;;;;;;;;;26.80;46.60;;;;;;5043501;28;88018;-43
2022/08/09 13:49:50;;;;;;;;;;;26.80;46.40;;;;;;5043819;28;87227;-44
2022/08/09 13:52:15;;;;;;;;;;;26.80;46.20;;;;;;5043810;28;87043;-44
2022/08/09 13:54:41;;;;;;;;;;;26.90;46.40;;;;;;5044005;28;87525;-43
2022/08/09 13:57:07;;;;;;;;;;;26.90;46.20;;;;;;5043754;28;87960;-44
2022/08/09 13:59:34;;;;;;;;;;;26.90;46.40;;;;;;5043858;28;87007;-43
2022/08/09 14:01:59;;;;;;;;;;;26.90;46.60;;;;;;5042699;27;88914;-41
2022/08/09 14:04:25;;;;;;;;;;;26.90;44.50;;;;;;5044038;28;87388;-43
2022/08/09 14:06:57;;;;;;;;;;;26.90;45.40;;;;;;5046998;28;87129;-43
2022/08/09 14:09:23;;;;;;;;;;;26.90;43.70;;;;;;5043517;28;88694;-43
2022/08/09 14:11:54;;;;;;;;;;;26.90;43.40;;;;;;5042585;28;87938;-45
2022/08/09 14:14:19;;;;;;;;;;;27.00;43.10;;;;;;5043638;27;88557;-42
2022/08/09 14:16:45;;;;;;;;;;;27.00;43.20;;;;;;5043430;28;87941;-42
2022/08/09 14:19:11;;;;;;;;;;;27.00;42.30;;;;;;5043797;28;87232;-43